Moanda, Gabon
Current Conditions -  °F | °C
As of 2:30 PM on Friday 31 Oct 2014 (Local Time) from FCBB Reporting Station
Broken Clouds Broken Clouds  
Wind Chill: 84°   Ceiling: 2300
Heat Index: 90°   Visibility: 6mi
Dew Point: 72°   Wind: 6mph
Humidity: 66%   Direction: 60°ENE
Pressure: 29.85"   Gusts: NA
Location:  1.56°S, 13.22°E
Report Text: FCBB 311330Z 06005KT 9999 BKN023 FEW033CB 29/22 Q1011 NOSIG
Loading
Personal Weather Stations






























Interactive Weather Map
Tropical Storm Tracking
New forecast layout! Learn more

10-Day Weather Forecast

Advertisements
Track Severe Weather on mobile